24 Max
12 km/h
0 Mini

LFMY 290000Z AUTO 31011KT 270V340 9999 FEW017 03/00 Q1001

TAF LFMY 271526Z 2715/2809 CNL